Time;durP1;ratioP1;P1;durP2;ratioP2;P2;SDS_P1;SDS_P2;PMS_P1;PMS_P2;Temp;Humidity;BMP_temperature;BMP_pressure;BME280_temperature;BME280_humidity;BME280_pressure;Samples;Min_cycle;Max_cycle;Signal;HPM_P1;HPM_P2
2021/07/16 00:01:15;;;;;;;4.78;2.78;;;23.00;71.40;;;;;;20950265;28;20087;-73
2021/07/16 00:11:15;;;;;;;7.65;5.00;;;23.00;71.70;;;;;;20981934;28;20363;-73
2021/07/16 00:21:16;;;;;;;7.30;4.32;;;23.00;72.00;;;;;;20998957;28;20624;-72
2021/07/16 00:31:17;;;;;;;4.80;3.05;;;23.00;72.30;;;;;;20963901;28;20094;-73
2021/07/16 00:41:17;;;;;;;7.37;4.93;;;23.00;72.50;;;;;;20962540;28;20032;-74
2021/07/16 00:51:18;;;;;;;6.18;4.25;;;23.00;72.60;;;;;;20978291;28;20294;-73
2021/07/16 01:01:19;;;;;;;5.00;3.55;;;23.00;72.80;;;;;;20945021;28;20066;-73
2021/07/16 01:11:19;;;;;;;6.27;3.40;;;23.00;72.90;;;;;;20977390;28;20033;-73
2021/07/16 01:21:20;;;;;;;5.85;3.97;;;23.00;73.00;;;;;;20976410;28;20326;-72
2021/07/16 01:31:20;;;;;;;7.20;4.10;;;23.10;73.10;;;;;;20959023;28;20119;-74
2021/07/16 01:41:21;;;;;;;5.90;4.53;;;23.00;73.80;;;;;;20974352;28;20676;-75
2021/07/16 01:51:21;;;;;;;8.00;4.97;;;23.00;73.20;;;;;;20941418;28;20028;-73
2021/07/16 02:01:24;;;;;;;4.60;3.88;;;23.00;73.20;;;;;;20940424;28;20052;-73
2021/07/16 02:11:26;;;;;;;8.20;4.72;;;23.00;73.20;;;;;;20974614;28;20043;-73
2021/07/16 02:21:26;;;;;;;8.07;3.83;;;22.90;73.20;;;;;;20956232;28;20041;-73
2021/07/16 02:31:27;;;;;;;8.50;5.22;;;22.90;73.20;;;;;;20972656;28;20665;-73
2021/07/16 02:41:28;;;;;;;7.38;5.28;;;22.90;73.40;;;;;;20955074;28;20467;-74
2021/07/16 02:51:28;;;;;;;7.57;4.93;;;22.90;73.40;;;;;;20971863;28;20371;-74
2021/07/16 03:01:29;;;;;;;9.90;5.60;;;22.90;73.40;;;;;;20955609;28;20390;-72
2021/07/16 03:11:29;;;;;;;8.88;5.30;;;22.90;73.40;;;;;;20956190;28;20132;-74
2021/07/16 03:21:31;;;;;;;7.82;5.43;;;22.90;73.50;;;;;;20969010;28;20524;-73
2021/07/16 03:31:31;;;;;;;7.40;4.93;;;22.90;73.50;;;;;;20950997;28;20036;-72
2021/07/16 03:41:32;;;;;;;8.93;4.83;;;22.90;73.60;;;;;;20983661;28;20041;-72
2021/07/16 03:51:33;;;;;;;6.18;4.85;;;22.90;73.70;;;;;;20966796;28;20387;-74
2021/07/16 04:01:33;;;;;;;8.57;4.87;;;22.90;73.70;;;;;;20949047;28;20113;-73
2021/07/16 04:11:34;;;;;;;6.55;4.75;;;22.90;73.70;;;;;;20964970;28;20032;-73
2021/07/16 04:21:35;;;;;;;7.45;4.93;;;22.90;73.70;;;;;;20964504;28;20041;-72
2021/07/16 04:31:35;;;;;;;8.60;4.72;;;22.80;73.60;;;;;;20961592;28;20041;-73
2021/07/16 04:41:36;;;;;;;8.10;5.10;;;22.90;73.60;;;;;;20945452;28;20093;-69
2021/07/16 04:51:36;;;;;;;8.77;5.60;;;22.80;73.40;;;;;;20973902;28;20060;-72
2021/07/16 05:01:37;;;;;;;8.90;5.20;;;22.80;73.40;;;;;;20970189;28;20737;-74
2021/07/16 05:11:38;;;;;;;6.97;5.20;;;22.80;74.00;;;;;;20947275;28;20037;-74
2021/07/16 05:21:38;;;;;;;10.73;5.57;;;22.80;73.40;;;;;;20959355;28;20395;-75
2021/07/16 05:31:43;;;;;;;8.75;5.20;;;22.80;73.40;;;;;;20959800;28;20029;-76
2021/07/16 05:41:44;;;;;;;;;;;22.80;73.40;;;;;;21001017;28;20048;-77
2021/07/16 05:51:45;;;;;;;11.70;5.80;;;22.80;73.40;;;;;;20962552;28;19912;-78
2021/07/16 06:01:47;;;;;;;10.38;5.22;;;22.80;73.30;;;;;;20952131;28;20383;-77
2021/07/16 06:11:48;;;;;;;9.07;5.35;;;22.80;73.30;;;;;;20949321;28;20028;-80
2021/07/16 06:21:50;;;;;;;7.97;5.88;;;22.70;73.20;;;;;;20955507;28;20044;-74
2021/07/16 06:31:51;;;;;;;9.35;5.93;;;22.70;73.20;;;;;;20957739;28;20029;-75
2021/07/16 06:41:51;;;;;;;9.07;5.15;;;22.70;73.20;;;;;;21018490;28;20058;-76
2021/07/16 06:51:53;;;;;;;9.57;5.35;;;22.80;73.20;;;;;;20978528;28;20071;-74
2021/07/16 07:01:54;;;;;;;7.20;5.05;;;22.70;73.20;;;;;;20959076;28;20047;-75
2021/07/16 07:11:55;;;;;;;9.10;5.28;;;22.70;73.10;;;;;;21008027;28;20473;-76
2021/07/16 07:21:55;;;;;;;6.13;4.70;;;22.70;73.10;;;;;;21039717;28;20044;-74
2021/07/16 07:31:56;;;;;;;7.50;4.97;;;22.70;73.10;;;;;;21002518;28;20078;-74
2021/07/16 07:41:57;;;;;;;8.68;6.00;;;22.80;73.20;;;;;;20997540;28;20036;-73
2021/07/16 07:51:57;;;;;;;9.57;5.47;;;22.80;73.30;;;;;;20968930;28;20439;-75
2021/07/16 08:01:58;;;;;;;7.97;5.25;;;22.80;73.50;;;;;;20950537;28;20040;-73
2021/07/16 08:11:59;;;;;;;11.95;5.35;;;22.80;73.60;;;;;;20964912;28;20035;-76
2021/07/16 08:22:00;;;;;;;8.05;5.63;;;22.70;73.50;;;;;;20941655;28;20044;-74
2021/07/16 08:32:01;;;;;;;5.85;4.35;;;22.70;73.30;;;;;;20960178;28;20429;-74
2021/07/16 08:42:02;;;;;;;6.80;4.32;;;22.70;73.20;;;;;;20986084;28;20037;-73
2021/07/16 08:52:03;;;;;;;7.85;4.97;;;22.80;73.20;;;;;;20939614;28;20032;-74
2021/07/16 09:02:04;;;;;;;6.88;4.95;;;22.80;73.10;;;;;;20952492;28;20588;-73
2021/07/16 09:12:07;;;;;;;8.00;4.93;;;22.70;73.00;;;;;;20966267;28;20047;-72
2021/07/16 09:22:09;;;;;;;6.88;4.88;;;22.70;73.00;;;;;;20953466;28;20047;-74
2021/07/16 09:32:09;;;;;;;7.75;5.13;;;22.70;73.00;;;;;;20967645;28;20037;-73
2021/07/16 09:42:10;;;;;;;8.00;4.63;;;22.70;72.90;;;;;;21505002;22;20054;-83
2021/07/16 09:52:13;;;;;;;8.98;4.63;;;22.70;72.90;;;;;;21153131;27;20770;-83
2021/07/16 10:02:15;;;;;;;11.07;5.32;;;22.70;72.90;;;;;;21088508;28;20028;-83
2021/07/16 10:12:15;;;;;;;9.15;4.80;;;22.70;72.90;;;;;;21161898;27;20047;-82
2021/07/16 10:22:16;;;;;;;9.05;5.85;;;22.70;73.00;;;;;;21144204;28;20031;-81
2021/07/16 10:32:39;;;;;;;13.25;6.55;;;22.70;73.10;;;;;;21154008;28;20184;-80
2021/07/16 10:42:44;;;;;;;13.52;6.18;;;22.80;73.30;;;;;;21154787;28;20378;-82
2021/07/16 10:52:49;;;;;;;17.33;7.72;;;22.80;73.40;;;;;;21112324;27;20039;-79
2021/07/16 11:02:49;;;;;;;15.35;6.90;;;22.80;73.50;;;;;;21157800;28;20031;-78
2021/07/16 11:12:50;;;;;;;16.77;7.03;;;22.80;73.50;;;;;;21217023;27;20507;-75
2021/07/16 11:22:55;;;;;;;14.27;6.38;;;22.80;73.60;;;;;;21210457;27;20070;-83
2021/07/16 11:33:02;;;;;;;;;;;22.80;73.60;;;;;;21160970;28;20032;-79
2021/07/16 11:43:05;;;;;;;15.43;6.75;;;22.90;73.70;;;;;;21148341;28;19948;-84
2021/07/16 11:53:06;;;;;;;16.83;7.13;;;22.80;73.80;;;;;;21150040;28;20055;-83
2021/07/16 12:03:31;;;;;;;16.53;6.80;;;22.90;74.00;;;;;;21125033;28;20023;-86
2021/07/16 12:13:31;;;;;;;15.65;6.53;;;22.90;74.30;;;;;;21167802;28;20650;-76
2021/07/16 12:23:32;;;;;;;16.60;8.48;;;22.80;74.30;;;;;;21148697;28;20067;-80
2021/07/16 12:33:35;;;;;;;18.47;7.40;;;22.90;74.40;;;;;;21135405;28;20040;-76
2021/07/16 12:43:39;;;;;;;19.02;7.82;;;22.90;74.50;;;;;;21167839;27;20295;-78
2021/07/16 12:54:00;;;;;;;19.17;6.73;;;22.90;74.50;;;;;;21153197;27;20057;-83
2021/07/16 13:04:16;;;;;;;16.80;6.88;;;22.80;74.50;;;;;;21137528;28;20114;-82
2021/07/16 13:14:24;;;;;;;17.85;6.72;;;22.90;74.60;;;;;;21119456;28;20085;-79
2021/07/16 13:24:25;;;;;;;13.35;6.35;;;22.90;74.70;;;;;;21132978;27;20024;-81
2021/07/16 13:34:26;;;;;;;13.05;5.93;;;22.90;74.70;;;;;;21106269;27;20434;-80
2021/07/16 13:44:27;;;;;;;12.15;6.53;;;22.90;74.80;;;;;;21162829;28;20050;-86
2021/07/16 13:54:28;;;;;;;15.57;6.10;;;22.90;74.80;;;;;;21140093;28;20432;-82
2021/07/16 14:04:28;;;;;;;14.18;6.18;;;22.90;74.70;;;;;;21118386;28;20035;-78
2021/07/16 14:14:29;;;;;;;15.63;6.30;;;22.90;74.70;;;;;;21115374;28;20381;-75
2021/07/16 14:24:30;;;;;;;15.90;6.97;;;22.90;74.70;;;;;;21117493;28;20080;-73
2021/07/16 14:34:31;;;;;;;19.43;6.27;;;23.00;74.80;;;;;;21118293;28;20105;-74
2021/07/16 14:44:32;;;;;;;19.00;7.07;;;23.00;74.90;;;;;;21136844;28;20318;-78
2021/07/16 14:54:33;;;;;;;14.32;7.00;;;23.00;74.90;;;;;;21121277;28;20397;-76
2021/07/16 15:04:34;;;;;;;14.30;5.93;;;23.00;74.90;;;;;;21154855;28;20031;-76
2021/07/16 15:14:35;;;;;;;12.63;5.93;;;23.00;74.90;;;;;;21132208;28;20305;-76
2021/07/16 15:24:37;;;;;;;10.27;6.18;;;23.00;74.90;;;;;;21152099;28;20092;-75
2021/07/16 15:34:38;;;;;;;12.13;6.90;;;23.00;74.90;;;;;;21117612;28;20396;-75
2021/07/16 15:44:39;;;;;;;12.52;6.50;;;23.10;75.00;;;;;;21133801;28;20130;-79
2021/07/16 15:54:42;;;;;;;10.68;6.93;;;23.10;75.00;;;;;;21172008;28;20431;-81
2021/07/16 16:04:46;;;;;;;14.30;6.43;;;23.10;75.00;;;;;;21136818;28;20028;-78
2021/07/16 16:14:48;;;;;;;9.57;5.38;;;23.10;74.90;;;;;;21118627;27;20031;-78
2021/07/16 16:24:48;;;;;;;8.48;5.90;;;23.10;74.90;;;;;;21108307;27;20375;-75
2021/07/16 16:34:50;;;;;;;12.95;5.65;;;23.10;75.00;;;;;;21097078;27;20039;-77
2021/07/16 16:44:50;;;;;;;12.98;5.40;;;23.20;75.20;;;;;;21097825;28;20032;-77
2021/07/16 16:54:51;;;;;;;16.05;7.10;;;23.20;75.30;;;;;;21099551;28;20482;-77
2021/07/16 17:04:52;;;;;;;12.05;6.28;;;23.30;75.30;;;;;;21073603;28;20047;-76
2021/07/16 17:14:53;;;;;;;11.60;5.95;;;23.20;75.30;;;;;;21071990;28;20042;-78
2021/07/16 17:24:53;;;;;;;8.65;5.45;;;23.20;75.30;;;;;;21096918;27;20482;-78
2021/07/16 17:34:54;;;;;;;12.57;6.15;;;23.30;75.40;;;;;;21090946;28;20071;-79
2021/07/16 17:44:55;;;;;;;9.80;6.05;;;23.30;75.40;;;;;;21093074;27;20028;-78
2021/07/16 17:54:56;;;;;;;12.25;5.30;;;23.30;75.50;;;;;;21119432;28;20134;-77
2021/07/16 18:04:57;;;;;;;9.35;5.55;;;23.30;75.60;;;;;;21063585;28;20042;-76
2021/07/16 18:14:57;;;;;;;13.27;7.00;;;23.30;75.70;;;;;;21114640;28;20485;-82
2021/07/16 18:24:58;;;;;;;10.70;5.25;;;23.20;75.70;;;;;;21108065;28;20030;-79
2021/07/16 18:34:59;;;;;;;7.60;4.93;;;23.20;75.80;;;;;;21156580;28;20485;-82
2021/07/16 18:45:03;;;;;;;13.38;5.95;;;23.20;75.80;;;;;;21128499;28;20152;-86
2021/07/16 18:55:04;;;;;;;8.70;5.23;;;23.20;75.80;;;;;;21154896;28;20035;-79
2021/07/16 19:05:06;;;;;;;13.13;5.35;;;23.20;75.90;;;;;;21153104;28;20086;-79
2021/07/16 19:15:08;;;;;;;14.15;6.78;;;23.20;76.00;;;;;;21135798;28;20048;-79
2021/07/16 19:25:10;;;;;;;12.77;5.20;;;23.20;76.10;;;;;;21151512;28;20031;-79
2021/07/16 19:35:11;;;;;;;13.82;6.22;;;23.20;76.20;;;;;;21167825;28;20481;-81
2021/07/16 19:45:12;;;;;;;10.30;5.47;;;23.20;76.20;;;;;;21115150;28;20081;-86
2021/07/16 19:55:14;;;;;;;13.98;5.85;;;23.20;76.40;;;;;;21153210;28;20032;-83
2021/07/16 20:05:17;;;;;;;13.00;5.70;;;23.10;76.30;;;;;;21112838;28;20039;-83
2021/07/16 20:15:18;;;;;;;12.40;5.47;;;23.10;76.20;;;;;;21128412;28;20171;-84
2021/07/16 20:25:19;;;;;;;12.87;5.53;;;23.10;76.00;;;;;;21133899;28;20043;-82
2021/07/16 20:35:21;;;;;;;9.45;5.68;;;23.10;76.00;;;;;;21124322;28;20066;-82
2021/07/16 20:45:22;;;;;;;9.32;4.65;;;23.00;75.80;;;;;;21123311;28;20039;-84
2021/07/16 20:55:26;;;;;;;10.27;4.35;;;23.10;75.80;;;;;;21145333;28;20023;-80
2021/07/16 21:05:26;;;;;;;8.30;4.65;;;23.00;75.70;;;;;;21155873;28;20038;-82
2021/07/16 21:15:32;;;;;;;13.32;4.82;;;23.00;75.70;;;;;;21148851;28;20035;-82
2021/07/16 21:25:33;;;;;;;6.93;4.78;;;23.00;75.60;;;;;;21147714;28;20031;-79
2021/07/16 21:35:34;;;;;;;7.25;4.20;;;23.00;75.50;;;;;;21165608;28;20443;-79
2021/07/16 21:45:34;;;;;;;6.63;4.03;;;22.90;75.40;;;;;;21147055;28;20039;-80
2021/07/16 21:55:35;;;;;;;7.78;4.53;;;22.90;76.00;;;;;;21130140;28;20110;-80
2021/07/16 22:05:36;;;;;;;8.57;5.00;;;23.00;75.40;;;;;;21095763;28;20066;-81
2021/07/16 22:15:36;;;;;;;7.32;3.80;;;22.90;75.30;;;;;;21110633;28;20667;-80
2021/07/16 22:25:38;;;;;;;7.13;4.30;;;22.90;75.30;;;;;;21128532;28;20039;-80
2021/07/16 22:35:39;;;;;;;7.72;4.18;;;22.90;75.20;;;;;;21144493;28;20370;-79
2021/07/16 22:45:39;;;;;;;6.97;3.95;;;22.90;75.10;;;;;;21143981;28;20031;-80
2021/07/16 22:55:40;;;;;;;5.50;4.07;;;22.90;75.10;;;;;;21126456;28;20039;-80
2021/07/16 23:05:44;;;;;;;7.17;3.50;;;22.90;75.10;;;;;;21110180;28;20137;-79
2021/07/16 23:15:44;;;;;;;6.33;4.27;;;22.90;75.00;;;;;;21124302;28;20782;-79
2021/07/16 23:25:45;;;;;;;7.90;4.28;;;22.80;74.90;;;;;;21159141;28;20080;-79
2021/07/16 23:35:46;;;;;;;7.07;3.92;;;22.80;74.90;;;;;;21137778;28;20071;-82
2021/07/16 23:45:48;;;;;;;7.80;4.25;;;22.80;74.80;;;;;;21140247;28;20073;-79
2021/07/16 23:55:49;;;;;;;5.45;3.30;;;22.80;74.80;;;;;;21155716;28;20024;-80
